»·PEaware :: N3610E KVNY-KOXR

N3610E :: KVNY-KOXR

FLIGHT INFORMATION

Flight Status: Arrived
Operator: Privately registered:
United States
More flights under this callsign
Pilot: John C. (12173)
Aircraft: CESSNA 172 SKYHAWK
(C172)
More flights by this aircraft type
Origin: KVNY Van Nuys
United States
Destination: KOXR Oxnard
United States
More flights between these airports :: More routes between these airports
Route: CANOG2 FIM
File this flight plan on PilotEdge
Remarks:
Altitude:
(Current/Filed)
4,000ft
Speed:
(Current/Filed)
100kts
Departed: 13-Mar-18 09:54 PM
Arrived: 13-Mar-18 10:34 PM
Distance/Time
Traveled:
36nm/0:40
Distance/Time
To Go:
Arrived

Flight Plot

Page will automatically refresh every two minutes.


Map Options




Map Legend


Flown Route
Filed Route
Departure Airport
Arrival Airport
Navaid (VOR, NDB)
Fix

Horizontal Profiles

Position Reports

Time Latitude Longitude Heading Altitude Ground
Speed
13-Mar-18 21:42 34.211330 -118.491527 90 784ft 0kts
13-Mar-18 21:43 34.219773 -118.493031 267 801ft 0kts
13-Mar-18 21:44 34.219773 -118.493031 267 801ft 0kts
13-Mar-18 21:45 34.219773 -118.493031 267 801ft 0kts
13-Mar-18 21:46 34.219773 -118.493031 267 801ft 0kts
13-Mar-18 21:47 34.219773 -118.493031 267 801ft 0kts
13-Mar-18 21:48 34.219773 -118.493031 267 801ft 0kts
13-Mar-18 21:49 34.219773 -118.493031 267 801ft 0kts
13-Mar-18 21:50 34.219004 -118.492901 151 799ft 6kts
13-Mar-18 21:51 34.218738 -118.492144 87 799ft 0kts
13-Mar-18 21:52 34.218743 -118.492093 82 799ft 2kts
13-Mar-18 21:53 34.211344 -118.490515 175 980ft 74kts
13-Mar-18 21:54 34.188958 -118.488966 185 1714ft 102kts
13-Mar-18 21:55 34.169279 -118.511046 223 2439ft 95kts
13-Mar-18 21:56 34.156366 -118.534337 277 3090ft 105kts
13-Mar-18 21:57 34.168858 -118.556419 301 3682ft 103kts
13-Mar-18 21:58 34.183069 -118.577715 301 3907ft 113kts
13-Mar-18 21:59 34.197925 -118.600164 304 3908ft 112kts
13-Mar-18 22:00 34.210591 -118.620906 299 3919ft 109kts
13-Mar-18 22:01 34.221365 -118.641297 297 3968ft 110kts
13-Mar-18 22:02 34.231964 -118.662276 296 4127ft 109kts
13-Mar-18 22:03 34.243206 -118.681606 305 4201ft 112kts
13-Mar-18 22:04 34.253068 -118.699171 299 4219ft 113kts
13-Mar-18 22:05 34.265917 -118.717987 309 4163ft 116kts
13-Mar-18 22:06 34.278935 -118.737551 294 4076ft 111kts
13-Mar-18 22:07 34.291052 -118.757449 299 4058ft 110kts
13-Mar-18 22:08 34.305632 -118.780448 299 4211ft 111kts
13-Mar-18 22:09 34.319450 -118.806641 294 4172ft 112kts
13-Mar-18 22:10 34.333601 -118.833117 299 4174ft 110kts
13-Mar-18 22:11 34.345635 -118.858893 294 4204ft 111kts
13-Mar-18 22:12 34.342223 -118.880675 186 4123ft 102kts
13-Mar-18 22:13 34.323939 -118.879985 181 4182ft 97kts
13-Mar-18 22:14 34.306261 -118.878575 177 4234ft 96kts
13-Mar-18 22:15 34.288308 -118.877656 183 4225ft 96kts
13-Mar-18 22:16 34.270195 -118.877216 180 4189ft 97kts
13-Mar-18 22:17 34.251942 -118.876248 179 4142ft 97kts
13-Mar-18 22:18 34.232309 -118.876013 185 4183ft 96kts
13-Mar-18 22:19 34.212764 -118.875537 180 4204ft 97kts
13-Mar-18 22:20 34.199656 -118.889237 269 4158ft 107kts
13-Mar-18 22:21 34.200594 -118.913599 261 3969ft 102kts
13-Mar-18 22:22 34.198744 -118.938917 264 3695ft 107kts
13-Mar-18 22:23 34.198454 -118.962780 259 3558ft 103kts
13-Mar-18 22:24 34.199953 -118.985541 271 3299ft 106kts
13-Mar-18 22:25 34.198694 -119.008103 260 3074ft 106kts
13-Mar-18 22:26 34.199218 -119.032985 274 2767ft 104kts
13-Mar-18 22:27 34.201526 -119.058669 270 2332ft 106kts
13-Mar-18 22:28 34.200986 -119.082154 261 2007ft 104kts
13-Mar-18 22:29 34.199943 -119.106660 270 1587ft 106kts
13-Mar-18 22:30 34.200106 -119.131270 267 1194ft 105kts
13-Mar-18 22:31 34.200615 -119.161584 265 714ft 104kts
13-Mar-18 22:32 34.200697 -119.194694 268 172ft 78kts
13-Mar-18 22:33 34.199989 -119.207127 180 37ft 0kts
13-Mar-18 22:34 34.199666 -119.207245 188 37ft 0kts
13-Mar-18 22:35 34.199666 -119.207245 188 37ft 0kts
13-Mar-18 22:36 34.199666 -119.207245 188 37ft 0kts

Navigation Log

Ident Type
1. KVNY Airport
2. IPIHO Fix
3. SUANA Fix
4. FIM Navaid
5. KOXR Airport